Time;durP1;ratioP1;P1;durP2;ratioP2;P2;SDS_P1;SDS_P2;PMS_P1;PMS_P2;Temp;Humidity;BMP_temperature;BMP_pressure;BME280_temperature;BME280_humidity;BME280_pressure;Samples;Min_cycle;Max_cycle;Signal;HPM_P1;HPM_P2
2021/08/08 00:00:41;;;;;;;2.92;1.77;;;;;;;22.00;44.46;94652.13;2960774;40;20052;-78
2021/08/08 00:02:43;;;;;;;2.88;1.92;;;;;;;21.26;46.25;94648.97;2960567;40;20055;-79
2021/08/08 00:04:47;;;;;;;3.45;1.85;;;;;;;20.97;46.83;94645.25;2964041;40;20341;-78
2021/08/08 00:06:49;;;;;;;3.28;1.80;;;;;;;20.34;48.51;94647.16;2963420;40;20060;-79
2021/08/08 00:08:51;;;;;;;2.30;1.70;;;;;;;19.96;49.52;94648.19;2964774;40;20319;-79
2021/08/08 00:10:53;;;;;;;5.40;1.90;;;;;;;20.04;49.46;94655.84;2963711;40;20059;-76
2021/08/08 00:12:54;;;;;;;2.95;1.90;;;;;;;19.69;50.28;94652.84;2961706;40;20049;-78
2021/08/08 00:14:56;;;;;;;4.40;2.03;;;;;;;19.49;50.82;94653.00;2963735;40;20152;-77
2021/08/08 00:16:58;;;;;;;2.80;1.80;;;;;;;19.60;50.48;94657.63;2960249;40;20057;-77
2021/08/08 00:19:00;;;;;;;5.07;2.30;;;;;;;19.83;49.91;94662.41;2964245;40;20067;-78
2021/08/08 00:21:01;;;;;;;3.70;2.00;;;;;;;19.75;50.25;94661.84;2963417;40;20051;-77
2021/08/08 00:23:04;;;;;;;3.28;1.73;;;;;;;19.70;50.20;94654.50;2966655;40;20045;-76
2021/08/08 00:25:08;;;;;;;4.00;1.85;;;;;;;19.82;49.92;94659.94;2964320;40;20037;-77
2021/08/08 00:27:10;;;;;;;3.00;1.52;;;;;;;19.76;50.32;94656.28;2964173;40;20045;-78
2021/08/08 00:29:12;;;;;;;2.80;1.55;;;;;;;19.96;49.80;94650.84;2962999;40;20351;-77
2021/08/08 00:31:16;;;;;;;4.65;1.83;;;;;;;20.29;48.93;94656.88;2967480;40;20077;-77
2021/08/08 00:33:18;;;;;;;4.63;1.92;;;;;;;20.60;48.05;94653.28;2961565;40;20048;-80
2021/08/08 00:35:20;;;;;;;4.13;1.65;;;;;;;20.85;47.35;94661.19;2963738;40;20067;-78
2021/08/08 00:37:21;;;;;;;2.60;1.80;;;;;;;21.06;46.97;94662.56;2963087;40;20048;-78
2021/08/08 00:39:25;;;;;;;2.67;1.70;;;;;;;21.19;46.47;94662.38;2964676;40;20503;-78
2021/08/08 00:41:26;;;;;;;3.03;1.80;;;;;;;21.26;46.32;94665.75;2963253;40;20442;-77
2021/08/08 00:43:28;;;;;;;2.17;1.50;;;;;;;21.32;46.05;94663.25;2963294;40;20477;-77
2021/08/08 00:45:30;;;;;;;5.13;1.75;;;;;;;21.37;45.82;94661.50;2963257;40;20140;-77
2021/08/08 00:47:31;;;;;;;3.25;2.00;;;;;;;21.40;45.82;94662.91;2963433;40;20420;-79
2021/08/08 00:49:33;;;;;;;3.92;1.55;;;;;;;21.29;46.09;94669.81;2962655;40;20061;-77
2021/08/08 00:51:36;;;;;;;2.90;1.90;;;;;;;21.30;46.06;94667.97;2967880;40;20063;-78
2021/08/08 00:53:38;;;;;;;3.50;1.80;;;;;;;21.38;45.89;94672.97;2964100;40;20144;-78
2021/08/08 00:55:40;;;;;;;3.85;1.88;;;;;;;21.44;45.63;94678.22;2962964;40;20133;-77
2021/08/08 00:57:42;;;;;;;3.92;1.80;;;;;;;21.50;45.33;94675.72;2964440;40;20104;-77
2021/08/08 00:59:43;;;;;;;3.72;1.90;;;;;;;21.52;45.38;94677.09;2963612;40;20187;-78
2021/08/08 01:01:47;;;;;;;3.05;1.85;;;;;;;21.58;44.97;94675.41;2963054;40;20134;-78
2021/08/08 01:03:49;;;;;;;3.65;1.50;;;;;;;21.63;44.87;94681.66;2962949;40;20416;-78
2021/08/08 01:05:59;;;;;;;3.95;1.60;;;;;;;21.66;45.03;94685.72;2964774;40;20064;-78
2021/08/08 01:08:03;;;;;;;2.20;1.40;;;;;;;21.64;44.99;94680.63;2964518;40;20415;-76
2021/08/08 01:10:05;;;;;;;2.88;1.77;;;;;;;21.61;45.32;94683.72;2965675;40;20422;-77
2021/08/08 01:12:08;;;;;;;4.70;1.80;;;;;;;21.51;45.45;94685.31;2966333;40;20060;-78
2021/08/08 01:14:10;;;;;;;2.20;1.70;;;;;;;21.50;45.37;94687.19;2963659;40;20080;-78
2021/08/08 01:16:13;;;;;;;2.67;1.75;;;;;;;21.52;45.21;94689.63;2965935;40;20329;-78
2021/08/08 01:18:16;;;;;;;2.58;1.73;;;;;;;21.58;45.02;94686.06;2965390;40;20047;-78
2021/08/08 01:20:18;;;;;;;3.33;1.63;;;;;;;21.63;45.24;94691.50;2964430;40;20148;-77
2021/08/08 01:22:20;;;;;;;4.80;1.80;;;;;;;21.59;45.17;94693.00;2961232;40;20063;-78
2021/08/08 01:24:22;;;;;;;8.98;1.65;;;;;;;21.42;45.53;94690.16;2964514;40;20465;-77
2021/08/08 01:26:25;;;;;;;3.65;1.83;;;;;;;21.32;45.46;94684.56;2972461;40;20048;-78
2021/08/08 01:28:27;;;;;;;2.90;1.52;;;;;;;21.34;45.82;94685.94;2964009;40;20142;-78
2021/08/08 01:30:29;;;;;;;2.28;1.60;;;;;;;21.38;45.63;94692.47;2962674;40;20394;-79
2021/08/08 01:32:33;;;;;;;3.58;1.70;;;;;;;21.37;45.50;94690.81;2964027;40;20137;-78
2021/08/08 01:34:35;;;;;;;2.92;1.70;;;;;;;21.38;45.36;94694.28;2960387;40;20037;-78
2021/08/08 01:36:37;;;;;;;2.55;2.00;;;;;;;21.37;45.33;94698.00;2964005;40;20072;-77
2021/08/08 01:38:43;;;;;;;2.88;1.80;;;;;;;21.38;45.07;94694.28;2965609;40;20181;-78
2021/08/08 01:41:03;;;;;;;3.08;1.60;;;;;;;21.43;45.03;94694.47;2970631;40;20060;-77
2021/08/08 01:43:07;;;;;;;3.40;1.60;;;;;;;21.46;44.88;94688.66;2962201;40;20109;-77
2021/08/08 01:45:13;;;;;;;3.15;1.65;;;;;;;21.46;44.72;94688.66;2962605;40;20041;-78
2021/08/08 01:47:17;;;;;;;3.92;1.90;;;;;;;21.43;44.94;94687.28;2965553;40;20101;-78
2021/08/08 01:49:22;;;;;;;6.20;1.60;;;;;;;21.47;44.66;94688.44;2962581;40;20054;-78
2021/08/08 01:51:26;;;;;;;2.95;1.63;;;;;;;21.50;44.26;94697.03;2966257;40;20302;-80
2021/08/08 01:53:27;;;;;;;;;;;;;;;21.41;44.75;94696.50;2966429;40;20105;-78
2021/08/08 01:55:29;;;;;;;2.47;1.58;;;;;;;21.32;45.18;94695.22;2961635;40;20175;-78
2021/08/08 01:57:33;;;;;;;3.90;2.45;;;;;;;21.26;45.29;94695.06;2966685;40;20133;-79
2021/08/08 01:59:36;;;;;;;3.60;1.63;;;;;;;21.23;45.16;94694.69;2963675;40;20410;-76
2021/08/08 02:01:38;;;;;;;2.05;1.52;;;;;;;21.25;45.19;94692.59;2962710;40;20113;-77
2021/08/08 02:03:40;;;;;;;2.30;1.65;;;;;;;21.28;45.09;94692.19;2963349;40;20159;-77
2021/08/08 02:05:42;;;;;;;3.63;1.60;;;;;;;21.31;44.88;94693.56;2963101;40;20052;-77
2021/08/08 02:07:44;;;;;;;1.63;1.23;;;;;;;21.30;44.03;94694.63;2961839;40;20141;-79
2021/08/08 02:09:46;;;;;;;3.75;1.30;;;;;;;21.31;43.31;94691.72;2965414;40;20048;-79
2021/08/08 02:11:47;;;;;;;1.85;1.20;;;;;;;21.31;43.20;94691.72;2962165;40;20040;-78
2021/08/08 02:13:49;;;;;;;4.55;1.40;;;;;;;21.34;43.37;94693.09;2965002;40;20133;-77
2021/08/08 02:15:51;;;;;;;2.33;1.58;;;;;;;21.28;43.14;94695.66;2965109;40;20065;-76
2021/08/08 02:17:53;;;;;;;2.63;1.30;;;;;;;21.22;43.34;94699.22;2967672;40;20368;-79
2021/08/08 02:19:55;;;;;;;1.63;1.15;;;;;;;21.27;43.40;94695.88;2963261;39;20097;-80
2021/08/08 02:21:57;;;;;;;1.80;1.30;;;;;;;21.33;43.20;94705.63;2959835;40;20331;-67
2021/08/08 02:23:58;;;;;;;3.33;1.40;;;;;;;21.34;43.30;94696.59;2962208;40;20401;-67
2021/08/08 02:26:00;;;;;;;2.65;1.42;;;;;;;21.35;43.47;94705.41;2962179;40;20064;-67
2021/08/08 02:28:02;;;;;;;3.25;1.40;;;;;;;21.34;43.36;94707.25;2965178;40;20056;-67
2021/08/08 02:30:07;;;;;;;1.95;1.27;;;;;;;21.33;43.42;94708.28;2965150;40;20422;-78
2021/08/08 02:32:08;;;;;;;4.20;1.45;;;;;;;21.25;43.36;94700.59;2963043;40;20066;-77
2021/08/08 02:34:12;;;;;;;3.05;1.30;;;;;;;21.02;43.93;94706.66;2964171;40;20113;-78
2021/08/08 02:36:14;;;;;;;3.38;1.50;;;;;;;20.56;44.99;94703.44;2964714;40;20132;-68
2021/08/08 02:38:16;;;;;;;3.03;1.38;;;;;;;20.13;46.36;94711.41;2964056;40;20060;-68
2021/08/08 02:40:18;;;;;;;2.25;1.48;;;;;;;19.82;47.18;94707.78;2961205;40;20133;-67
2021/08/08 02:42:20;;;;;;;2.00;1.50;;;;;;;19.91;47.18;94708.34;2964671;40;20057;-68
2021/08/08 02:44:22;;;;;;;3.25;1.55;;;;;;;20.13;46.34;94706.09;2962198;40;20415;-68
2021/08/08 02:46:24;;;;;;;4.03;1.33;;;;;;;20.32;45.73;94704.28;2960418;40;20438;-67
2021/08/08 02:48:26;;;;;;;3.10;1.20;;;;;;;20.49;45.45;94713.34;2962381;40;20484;-67
2021/08/08 02:50:27;;;;;;;1.85;1.20;;;;;;;20.58;45.28;94706.72;2962770;40;20085;-68
2021/08/08 02:52:29;;;;;;;4.03;1.30;;;;;;;20.65;45.31;94712.00;2963080;40;20148;-66
2021/08/08 02:54:31;;;;;;;2.03;1.42;;;;;;;20.76;45.07;94716.56;2960250;40;20129;-67
2021/08/08 02:56:33;;;;;;;2.13;1.60;;;;;;;20.84;44.77;94716.28;2961773;40;20044;-67
2021/08/08 02:58:34;;;;;;;4.70;1.38;;;;;;;20.88;44.67;94721.97;2963009;40;20077;-67
2021/08/08 03:00:36;;;;;;;2.45;1.40;;;;;;;20.78;44.74;94724.31;2970452;40;20050;-68
2021/08/08 03:02:38;;;;;;;3.60;1.45;;;;;;;20.67;44.89;94717.88;2961515;40;20648;-67
2021/08/08 03:04:40;;;;;;;2.70;1.60;;;;;;;20.66;45.16;94724.25;2962282;40;20160;-68
2021/08/08 03:06:46;;;;;;;3.17;1.15;;;;;;;20.75;44.90;94730.09;2961442;40;20048;-67
2021/08/08 03:08:47;;;;;;;2.20;1.30;;;;;;;20.82;44.68;94734.31;2962889;40;20049;-67
2021/08/08 03:10:49;;;;;;;1.95;1.27;;;;;;;20.92;44.60;94740.97;2964344;40;20064;-68
2021/08/08 03:12:51;;;;;;;1.80;1.20;;;;;;;20.98;44.40;94742.75;2960910;40;20068;-66
2021/08/08 03:14:52;;;;;;;4.68;1.58;;;;;;;21.06;44.14;94745.13;2963807;40;20132;-68
2021/08/08 03:16:54;;;;;;;2.03;1.25;;;;;;;21.08;43.95;94745.72;2961483;40;20068;-67
2021/08/08 03:18:56;;;;;;;2.67;1.42;;;;;;;21.11;44.07;94745.25;2961067;40;20053;-69
2021/08/08 03:20:58;;;;;;;2.65;1.40;;;;;;;21.12;44.13;94736.22;2962363;40;20060;-68
2021/08/08 03:22:59;;;;;;;2.42;1.60;;;;;;;21.12;44.07;94738.88;2961273;40;20443;-69
2021/08/08 03:25:01;;;;;;;1.75;1.20;;;;;;;21.13;44.23;94737.84;2963270;40;20324;-68
2021/08/08 03:27:03;;;;;;;2.70;1.50;;;;;;;21.16;44.29;94741.91;2971072;40;20419;-67
2021/08/08 03:29:05;;;;;;;3.05;1.35;;;;;;;21.17;44.22;94741.69;2965401;40;20055;-67
2021/08/08 03:31:07;;;;;;;2.55;1.50;;;;;;;21.11;44.21;94741.78;2964426;40;20088;-68
2021/08/08 03:33:08;;;;;;;2.60;1.33;;;;;;;21.07;44.38;94733.41;2961106;40;20076;-67
2021/08/08 03:35:10;;;;;;;3.45;1.70;;;;;;;21.04;44.50;94732.03;2961145;40;20113;-68
2021/08/08 03:37:12;;;;;;;2.60;1.38;;;;;;;20.98;44.27;94734.75;2960751;40;20071;-69
2021/08/08 03:39:14;;;;;;;3.22;1.50;;;;;;;20.82;44.69;94731.66;2964029;40;20079;-67
2021/08/08 03:41:16;;;;;;;4.28;1.30;;;;;;;20.66;45.12;94732.25;2964219;40;20053;-67
2021/08/08 03:43:18;;;;;;;2.40;1.83;;;;;;;20.69;45.25;94734.44;2962113;40;20056;-68
2021/08/08 03:45:20;;;;;;;3.38;1.40;;;;;;;20.80;45.19;94744.38;2959574;40;20053;-67
2021/08/08 03:47:21;;;;;;;1.80;1.30;;;;;;;20.91;44.85;94744.66;2963366;40;20182;-67
2021/08/08 03:49:23;;;;;;;4.13;1.50;;;;;;;20.95;44.88;94737.84;2962983;40;20402;-67
2021/08/08 03:51:25;;;;;;;5.32;1.70;;;;;;;20.96;44.94;94744.81;2962881;40;20060;-68
2021/08/08 03:53:26;;;;;;;2.75;1.60;;;;;;;20.75;45.31;94741.56;2961884;40;20049;-68
2021/08/08 03:55:28;;;;;;;2.70;1.65;;;;;;;20.62;45.57;94741.69;2963412;40;20313;-67
2021/08/08 03:57:30;;;;;;;2.85;1.50;;;;;;;20.14;46.69;94752.97;2962997;40;20140;-68
2021/08/08 03:59:32;;;;;;;5.65;2.00;;;;;;;19.97;46.95;94755.34;2962553;40;20061;-67
2021/08/08 04:01:34;;;;;;;3.30;1.83;;;;;;;19.53;48.42;94757.84;2961764;40;20374;-67
2021/08/08 04:03:36;;;;;;;5.22;1.83;;;;;;;19.33;48.90;94752.59;2963657;40;20594;-68
2021/08/08 04:05:38;;;;;;;3.60;1.40;;;;;;;19.43;48.92;94760.13;2970840;40;20491;-68
2021/08/08 04:07:40;;;;;;;3.38;1.65;;;;;;;19.63;48.47;94758.16;2961797;40;20048;-68
2021/08/08 04:09:41;;;;;;;2.53;1.70;;;;;;;19.54;48.77;94775.41;2960318;40;20039;-67
2021/08/08 04:11:43;;;;;;;5.70;2.10;;;;;;;19.42;49.04;94772.59;2964545;40;20453;-67
2021/08/08 04:13:45;;;;;;;3.72;1.75;;;;;;;19.71;48.39;94770.44;2962722;40;20088;-68
2021/08/08 04:15:46;;;;;;;5.13;1.70;;;;;;;20.02;47.85;94771.44;2961461;40;20427;-69
2021/08/08 04:17:48;;;;;;;5.50;1.83;;;;;;;20.21;47.35;94764.34;2961368;40;20156;-69
2021/08/08 04:19:51;;;;;;;3.10;1.70;;;;;;;20.36;47.13;94769.34;2962240;40;20279;-67
2021/08/08 04:21:52;;;;;;;4.10;1.90;;;;;;;20.45;46.93;94770.69;2962195;40;20443;-68
2021/08/08 04:23:54;;;;;;;2.45;1.58;;;;;;;20.59;46.56;94766.91;2961889;40;20418;-67
2021/08/08 04:25:56;;;;;;;2.85;1.80;;;;;;;20.80;46.15;94770.16;2962715;40;20074;-79
2021/08/08 04:27:57;;;;;;;2.55;1.73;;;;;;;21.00;45.75;94773.44;2964671;40;20131;-78
2021/08/08 04:29:59;;;;;;;2.88;1.52;;;;;;;21.15;45.20;94775.75;2965625;40;20084;-77
2021/08/08 04:32:01;;;;;;;3.13;1.77;;;;;;;21.19;45.33;94778.78;2961405;40;20161;-78
2021/08/08 04:34:03;;;;;;;2.63;1.70;;;;;;;21.01;45.82;94775.06;2961779;40;20049;-68
2021/08/08 04:36:05;;;;;;;5.38;2.00;;;;;;;20.75;46.49;94773.50;2964386;40;20354;-67
2021/08/08 04:38:06;;;;;;;3.38;1.75;;;;;;;20.99;46.04;94782.50;2964025;40;20149;-68
2021/08/08 04:40:09;;;;;;;3.10;1.90;;;;;;;21.11;45.59;94784.41;2962079;40;20426;-67
2021/08/08 04:42:11;;;;;;;3.60;1.63;;;;;;;21.22;45.22;94773.81;2963870;40;20048;-66
2021/08/08 04:44:12;;;;;;;7.78;1.90;;;;;;;21.45;44.86;94775.81;2963685;40;20056;-69
2021/08/08 04:46:14;;;;;;;7.03;1.77;;;;;;;21.61;44.43;94774.38;2964588;40;20048;-67
2021/08/08 04:48:16;;;;;;;4.47;1.70;;;;;;;21.66;44.26;94771.00;2963294;40;20047;-68
2021/08/08 04:50:18;;;;;;;3.72;1.85;;;;;;;21.75;44.05;94772.34;2962290;40;20044;-68
2021/08/08 04:52:20;;;;;;;2.42;1.60;;;;;;;21.80;43.84;94777.00;2963660;40;20168;-69
2021/08/08 04:54:22;;;;;;;2.28;1.58;;;;;;;21.86;43.99;94770.75;2963612;40;20383;-70
2021/08/08 04:56:23;;;;;;;2.22;1.40;;;;;;;21.98;43.77;94768.91;2963363;40;20156;-68
2021/08/08 04:58:25;;;;;;;3.38;1.38;;;;;;;22.06;43.62;94765.13;2963830;40;20041;-69
2021/08/08 05:00:27;;;;;;;3.30;1.80;;;;;;;22.17;43.34;94766.19;2962363;40;20049;-68
2021/08/08 05:02:29;;;;;;;2.53;1.50;;;;;;;22.27;42.99;94771.81;2961972;40;20255;-68
2021/08/08 05:04:30;;;;;;;3.65;1.40;;;;;;;22.36;42.23;94774.94;2963864;40;20361;-67
2021/08/08 05:06:33;;;;;;;5.57;1.80;;;;;;;22.41;41.98;94770.56;2964056;40;20072;-68
2021/08/08 05:08:35;;;;;;;3.90;1.88;;;;;;;22.45;42.37;94770.88;2962538;40;20491;-68
2021/08/08 05:10:36;;;;;;;1.98;1.50;;;;;;;22.52;42.08;94778.78;2965524;40;20208;-79
2021/08/08 05:12:38;;;;;;;4.18;1.80;;;;;;;22.57;42.12;94778.91;2966051;40;20429;-79
2021/08/08 05:14:40;;;;;;;4.40;1.73;;;;;;;22.62;41.83;94777.16;2965848;40;20100;-81
2021/08/08 05:16:42;;;;;;;2.60;1.90;;;;;;;22.64;42.11;94775.06;2964302;40;20067;-77
2021/08/08 05:18:43;;;;;;;2.97;1.60;;;;;;;22.70;41.88;94786.69;2967063;40;20110;-79
2021/08/08 05:20:45;;;;;;;7.55;1.50;;;;;;;22.69;42.06;94782.38;2964180;40;20418;-78
2021/08/08 05:22:47;;;;;;;4.65;1.80;;;;;;;22.62;42.39;94792.38;2964303;40;20323;-83
2021/08/08 05:24:49;;;;;;;2.90;1.67;;;;;;;22.63;42.77;94788.66;2964882;40;20380;-77
2021/08/08 05:26:50;;;;;;;2.70;1.45;;;;;;;22.63;42.64;94789.47;2965489;40;20680;-78
2021/08/08 05:28:52;;;;;;;3.65;1.77;;;;;;;22.46;43.00;94788.53;2965901;40;20441;-79
2021/08/08 05:30:54;;;;;;;3.35;2.00;;;;;;;22.21;43.87;94791.38;2964923;40;20064;-77
2021/08/08 05:32:55;;;;;;;7.00;2.05;;;;;;;22.23;43.92;94791.97;2965951;40;20138;-77
2021/08/08 05:34:57;;;;;;;2.80;1.70;;;;;;;22.41;43.81;94794.56;2963913;40;20110;-78
2021/08/08 05:36:59;;;;;;;3.38;2.00;;;;;;;22.57;43.60;94797.59;2964679;40;20057;-76
2021/08/08 05:39:02;;;;;;;5.97;2.10;;;;;;;22.15;43.93;94800.28;2963120;40;20042;-78
2021/08/08 05:41:03;;;;;;;4.57;2.20;;;;;;;21.61;45.56;94802.88;2964299;40;20053;-78
2021/08/08 05:43:05;;;;;;;4.00;2.13;;;;;;;21.30;46.18;94796.69;2967712;40;20051;-77
2021/08/08 05:45:07;;;;;;;3.70;2.30;;;;;;;21.54;45.81;94802.97;2964590;40;20040;-79
2021/08/08 05:47:09;;;;;;;5.60;2.15;;;;;;;21.85;45.73;94801.13;2965891;40;20041;-79
2021/08/08 05:49:11;;;;;;;4.38;2.40;;;;;;;22.03;45.77;94798.41;2966327;40;20068;-80
2021/08/08 05:51:13;;;;;;;4.80;2.37;;;;;;;21.98;45.56;94802.78;2961112;40;20049;-78
2021/08/08 05:53:28;;;;;;;8.98;2.70;;;;;;;21.93;45.86;94803.47;2963791;40;20060;-78
2021/08/08 05:55:29;;;;;;;4.45;2.58;;;;;;;21.86;46.13;94808.09;2964971;40;20056;-79
2021/08/08 05:57:31;;;;;;;5.32;2.85;;;;;;;22.01;45.73;94805.81;2966766;40;20060;-79
2021/08/08 05:59:33;;;;;;;6.68;2.80;;;;;;;22.24;45.33;94799.75;2965436;40;20070;-78
2021/08/08 06:01:34;;;;;;;4.45;2.67;;;;;;;22.28;45.03;94800.09;2964494;40;20057;-79
2021/08/08 06:03:37;;;;;;;5.97;2.90;;;;;;;21.98;45.33;94800.91;2964252;40;20138;-81
2021/08/08 06:05:39;;;;;;;7.43;2.70;;;;;;;22.03;45.11;94800.25;2963070;40;20343;-78
2021/08/08 06:07:41;;;;;;;4.30;3.08;;;;;;;21.87;45.33;94807.03;2965349;40;20518;-78
2021/08/08 06:09:42;;;;;;;4.53;2.50;;;;;;;21.85;45.62;94801.13;2964873;40;20483;-78
2021/08/08 06:11:44;;;;;;;3.75;2.50;;;;;;;21.54;46.60;94813.63;2964118;40;20391;-78
2021/08/08 06:13:46;;;;;;;4.82;2.70;;;;;;;21.76;46.03;94805.94;2967003;40;20061;-78
2021/08/08 06:15:47;;;;;;;3.90;2.28;;;;;;;21.90;45.64;94806.59;2969035;40;20326;-78
2021/08/08 06:17:49;;;;;;;8.55;5.85;;;;;;;22.17;45.43;94799.00;2964510;40;20060;-78
2021/08/08 06:19:51;;;;;;;7.40;4.32;;;;;;;22.53;44.48;94797.25;2967225;40;20076;-78
2021/08/08 06:21:53;;;;;;;6.63;4.53;;;;;;;22.88;43.61;94799.91;2964622;40;20041;-79
2021/08/08 06:23:55;;;;;;;6.15;4.03;;;;;;;23.16;43.03;94801.06;2967028;40;20060;-78
2021/08/08 06:25:57;;;;;;;6.47;2.92;;;;;;;23.42;43.10;94799.72;2964786;40;20113;-80
2021/08/08 06:27:58;;;;;;;8.98;2.75;;;;;;;23.37;42.69;94798.84;2964505;40;20088;-79
2021/08/08 06:30:00;;;;;;;6.78;2.40;;;;;;;23.21;42.87;94803.88;2965344;40;20247;-79
2021/08/08 06:32:02;;;;;;;4.75;2.38;;;;;;;23.28;42.69;94804.53;2965922;40;20062;-78
2021/08/08 06:34:04;;;;;;;5.72;2.95;;;;;;;23.44;42.27;94808.31;2964844;40;20117;-77
2021/08/08 06:36:05;;;;;;;3.70;2.38;;;;;;;23.68;41.71;94808.25;2964076;40;20052;-77
2021/08/08 06:38:11;;;;;;;3.13;2.13;;;;;;;23.66;41.64;94805.84;2965981;40;20041;-78
2021/08/08 06:40:14;;;;;;;4.55;1.95;;;;;;;23.57;41.22;94807.25;2965483;39;20362;-79
2021/08/08 06:42:15;;;;;;;6.43;2.55;;;;;;;23.25;42.89;94807.69;2966512;40;20453;-80
2021/08/08 06:44:17;;;;;;;3.80;1.88;;;;;;;23.51;42.51;94800.16;2963617;40;20180;-78
2021/08/08 06:46:19;;;;;;;3.35;2.10;;;;;;;23.64;42.07;94805.28;2966015;40;20052;-80
2021/08/08 06:48:21;;;;;;;4.47;2.42;;;;;;;23.79;41.81;94804.78;2963233;40;20125;-77
2021/08/08 06:50:22;;;;;;;5.07;1.75;;;;;;;23.87;41.72;94806.25;2964569;40;20132;-79
2021/08/08 06:52:24;;;;;;;6.03;2.17;;;;;;;23.99;41.24;94804.34;2965630;40;20048;-81
2021/08/08 06:54:26;;;;;;;8.57;4.80;;;;;;;23.97;40.83;94806.44;2965288;40;20061;-79
2021/08/08 06:56:29;;;;;;;3.67;2.22;;;;;;;23.90;41.03;94808.47;2970891;40;20504;-79
2021/08/08 06:59:21;;;;;;;3.65;2.28;;;;;;;23.75;41.62;94808.13;2966839;40;20064;-79
2021/08/08 07:01:22;;;;;;;5.20;2.20;;;;;;;23.85;41.68;94808.34;2965002;40;20133;-78
2021/08/08 07:03:24;;;;;;;4.22;2.28;;;;;;;24.00;41.73;94805.13;2963922;40;20056;-77
2021/08/08 07:05:26;;;;;;;4.47;2.13;;;;;;;24.25;41.33;94802.91;2964502;40;20089;-78
2021/08/08 07:07:28;;;;;;;4.13;2.45;;;;;;;24.47;40.41;94800.31;2963933;40;20419;-79
2021/08/08 07:09:30;;;;;;;4.22;2.10;;;;;;;24.64;39.61;94803.03;2965845;40;20157;-78
2021/08/08 07:11:32;;;;;;;5.85;2.35;;;;;;;24.82;39.57;94806.50;2965030;40;20080;-78
2021/08/08 07:13:33;;;;;;;4.97;2.17;;;;;;;24.90;39.60;94806.09;2966249;40;20105;-78
2021/08/08 07:15:35;;;;;;;2.95;1.90;;;;;;;25.10;39.57;94811.75;2964760;40;20075;-82
2021/08/08 07:17:37;;;;;;;3.97;2.03;;;;;;;25.09;38.97;94812.00;2964592;40;20076;-77
2021/08/08 07:19:39;;;;;;;3.47;1.98;;;;;;;25.18;39.09;94802.47;2964642;40;20144;-79
2021/08/08 07:21:41;;;;;;;4.40;2.20;;;;;;;25.30;38.70;94805.06;2965766;40;20421;-80
2021/08/08 07:23:46;;;;;;;3.45;2.17;;;;;;;25.45;38.42;94802.56;2969639;40;20056;-79
2021/08/08 07:25:48;;;;;;;6.63;2.33;;;;;;;25.61;37.87;94805.44;2970864;40;20115;-77
2021/08/08 07:27:52;;;;;;;3.45;1.98;;;;;;;25.42;38.02;94802.25;2961853;40;20057;-79
2021/08/08 07:29:54;;;;;;;5.43;1.85;;;;;;;25.38;38.23;94809.19;2965931;40;20044;-78
2021/08/08 07:31:56;;;;;;;5.00;2.25;;;;;;;25.02;38.32;94803.31;2962841;40;20319;-79
2021/08/08 07:33:58;;;;;;;3.95;2.00;;;;;;;24.98;38.48;94805.69;2963757;40;20181;-78
2021/08/08 07:36:00;;;;;;;3.15;2.17;;;;;;;25.11;38.51;94799.16;2962980;40;20057;-77
2021/08/08 07:38:03;;;;;;;3.83;2.47;;;;;;;25.25;38.21;94800.47;2961740;40;20053;-80
2021/08/08 07:40:05;;;;;;;3.60;1.80;;;;;;;25.47;37.92;94797.78;2962795;40;20314;-68
2021/08/08 07:42:07;;;;;;;2.80;1.85;;;;;;;25.37;37.63;94804.88;2964400;40;20060;-68
2021/08/08 07:44:09;;;;;;;3.65;1.88;;;;;;;25.25;37.92;94797.78;2962581;40;20052;-70
2021/08/08 07:46:11;;;;;;;3.55;2.15;;;;;;;25.25;38.26;94800.47;2960790;40;20048;-67
2021/08/08 07:48:13;;;;;;;4.85;2.00;;;;;;;25.54;37.60;94792.22;2963252;40;20139;-67
2021/08/08 07:50:14;;;;;;;2.95;2.33;;;;;;;25.43;36.75;94790.50;2963225;40;20145;-66
2021/08/08 07:52:16;;;;;;;2.85;1.80;;;;;;;25.40;37.24;94789.09;2961802;40;20379;-67
2021/08/08 07:54:20;;;;;;;2.92;1.70;;;;;;;25.41;37.17;94788.03;2961204;40;20149;-67
2021/08/08 07:56:22;;;;;;;3.20;1.83;;;;;;;25.28;37.33;94789.22;2962594;40;20088;-69
2021/08/08 07:58:24;;;;;;;4.15;2.33;;;;;;;25.47;37.28;94787.06;2963583;40;20064;-67
2021/08/08 08:00:26;;;;;;;2.80;1.92;;;;;;;25.45;37.41;94783.00;2961753;40;20511;-67
2021/08/08 08:02:27;;;;;;;2.58;1.67;;;;;;;25.30;37.50;94789.78;2963951;39;20051;-66
2021/08/08 08:04:29;;;;;;;3.80;2.20;;;;;;;25.53;37.37;94790.59;2964289;40;20126;-68
2021/08/08 08:06:31;;;;;;;2.88;1.88;;;;;;;25.67;36.79;94788.34;2962245;40;20056;-69
2021/08/08 08:08:33;;;;;;;2.40;1.60;;;;;;;25.87;36.28;94790.44;2962438;40;20476;-68
2021/08/08 08:10:35;;;;;;;2.95;1.80;;;;;;;25.90;35.79;94795.34;2964381;40;20107;-69
2021/08/08 08:12:38;;;;;;;3.97;1.88;;;;;;;26.01;36.02;94786.31;2963972;40;20442;-69
2021/08/08 08:14:40;;;;;;;3.10;1.88;;;;;;;26.31;35.43;94790.38;2962030;40;20051;-68
2021/08/08 08:16:42;;;;;;;2.90;1.98;;;;;;;26.48;35.30;94790.22;2963182;40;20220;-68
2021/08/08 08:18:43;;;;;;;2.58;1.92;;;;;;;26.59;35.07;94789.28;2962667;40;20049;-68
2021/08/08 08:20:45;;;;;;;5.38;2.03;;;;;;;26.45;34.95;94791.53;2962450;40;20411;-68
2021/08/08 08:22:47;;;;;;;3.50;1.90;;;;;;;26.64;35.02;94785.81;2964566;40;20088;-68
2021/08/08 08:24:49;;;;;;;2.72;1.90;;;;;;;26.87;34.79;94787.31;2964384;40;20060;-68
2021/08/08 08:26:51;;;;;;;2.55;1.77;;;;;;;26.77;34.47;94788.06;2961285;40;20047;-69
2021/08/08 08:28:52;;;;;;;4.53;2.08;;;;;;;26.70;34.79;94787.47;2961596;40;20056;-68
2021/08/08 08:30:54;;;;;;;2.97;2.00;;;;;;;26.76;34.36;94781.06;2964502;40;20334;-68
2021/08/08 08:32:56;;;;;;;3.13;2.10;;;;;;;26.78;34.61;94787.00;2966210;40;22413;-68
2021/08/08 08:35:15;;;;;;;4.28;1.70;;;;;;;26.92;34.46;94785.47;2961311;40;20059;-68
2021/08/08 08:37:19;;;;;;;2.92;1.90;;;;;;;27.05;34.71;94778.00;2963529;40;20103;-68
2021/08/08 08:39:21;;;;;;;3.78;1.88;;;;;;;27.20;34.37;94778.09;2962931;40;20655;-68
2021/08/08 08:41:30;;;;;;;4.00;1.92;;;;;;;27.34;34.15;94775.75;2962541;40;20427;-68
2021/08/08 08:43:33;;;;;;;2.97;1.80;;;;;;;27.48;33.56;94778.78;2964508;40;20138;-68
2021/08/08 08:45:40;;;;;;;4.70;1.98;;;;;;;27.36;33.70;94781.69;2963563;40;20060;-68
2021/08/08 08:47:44;;;;;;;2.97;2.10;;;;;;;27.26;33.36;94776.28;2961252;40;20068;-68
2021/08/08 08:49:47;;;;;;;4.07;2.03;;;;;;;27.21;33.27;94768.97;2960290;40;20317;-69
2021/08/08 08:51:55;;;;;;;6.70;2.42;;;;;;;27.35;33.52;94766.63;2965854;40;20184;-67
2021/08/08 08:53:58;;;;;;;4.22;2.08;;;;;;;27.43;33.07;94763.44;2972656;39;20437;-68
2021/08/08 08:56:01;;;;;;;3.47;1.70;;;;;;;27.42;33.14;94763.69;2963683;40;20361;-67
2021/08/08 08:58:03;;;;;;;4.25;1.60;;;;;;;27.78;33.25;94767.31;2963996;40;20126;-69
2021/08/08 09:00:07;;;;;;;4.60;1.77;;;;;;;27.96;32.44;94769.56;2962447;40;20562;-69
2021/08/08 09:02:09;;;;;;;2.78;1.65;;;;;;;28.09;32.08;94770.09;2965939;40;20056;-68
2021/08/08 09:04:11;;;;;;;2.30;1.77;;;;;;;28.25;31.69;94769.03;2964915;40;20055;-68
2021/08/08 09:06:13;;;;;;;2.17;1.55;;;;;;;28.47;31.40;94767.97;2962735;40;20298;-68
2021/08/08 09:08:15;;;;;;;3.50;2.20;;;;;;;28.48;31.21;94767.75;2965682;40;20068;-67
2021/08/08 09:10:17;;;;;;;3.47;2.00;;;;;;;28.18;31.47;94766.63;2963064;40;20675;-69
2021/08/08 09:12:26;;;;;;;3.63;1.83;;;;;;;28.09;31.42;94770.91;2963063;40;20037;-69
2021/08/08 09:14:28;;;;;;;4.43;2.40;;;;;;;28.15;31.53;94763.63;2962752;40;20063;-68
2021/08/08 09:16:39;;;;;;;2.33;1.63;;;;;;;27.76;31.72;94769.47;2961657;40;20048;-69
2021/08/08 09:18:55;;;;;;;3.53;1.95;;;;;;;27.55;32.88;94765.88;2964394;40;20057;-67
2021/08/08 09:20:57;;;;;;;3.28;2.05;;;;;;;27.65;32.57;94765.94;2960308;40;20068;-67
2021/08/08 09:22:59;;;;;;;2.78;1.88;;;;;;;27.84;31.98;94766.25;2964110;40;20521;-68
2021/08/08 09:25:01;;;;;;;5.63;2.05;;;;;;;28.11;31.86;94763.34;2965135;40;20092;-65
2021/08/08 09:27:12;;;;;;;4.45;1.92;;;;;;;28.23;31.42;94767.69;2965670;40;20052;-68
2021/08/08 09:29:16;;;;;;;5.07;1.98;;;;;;;28.09;30.96;94768.22;2964494;40;20133;-68
2021/08/08 09:31:19;;;;;;;2.83;2.00;;;;;;;28.22;31.13;94774.94;2963431;40;20326;-69
2021/08/08 09:33:21;;;;;;;3.97;1.80;;;;;;;28.45;30.95;94765.53;2962731;40;20061;-67
2021/08/08 09:35:31;;;;;;;2.65;1.60;;;;;;;28.71;30.38;94765.56;2962384;40;20036;-69
2021/08/08 09:37:33;;;;;;;3.60;1.77;;;;;;;29.00;30.18;94768.47;2963835;40;20361;-70